Time;durP1;ratioP1;P1;durP2;ratioP2;P2;SDS_P1;SDS_P2;PMS_P1;PMS_P2;Temp;Humidity;BMP_temperature;BMP_pressure;BME280_temperature;BME280_humidity;BME280_pressure;Samples;Min_cycle;Max_cycle;Signal;HPM_P1;HPM_P2
2021/12/09 00:01:45;;;;;;;26.60;16.17;;;2.60;99.90;;;;;;4386810;28;10000499;-70
2021/12/09 00:04:14;;;;;;;25.58;16.48;;;2.60;99.90;;;;;;5096069;28;20040;-70
2021/12/09 00:06:43;;;;;;;24.70;16.17;;;2.60;99.90;;;;;;5106922;28;20028;-70
2021/12/09 00:09:15;;;;;;;27.45;16.80;;;2.60;99.90;;;;;;5107930;28;20029;-70
2021/12/09 00:11:46;;;;;;;20.60;12.88;;;2.60;99.90;;;;;;5103714;28;20031;-70
2021/12/09 00:14:21;;;;;;;28.17;17.30;;;2.60;99.90;;;;;;5100710;28;20033;-70
2021/12/09 00:16:48;;;;;;;26.20;17.00;;;2.70;99.90;;;;;;5103077;28;20096;-70
2021/12/09 00:19:14;;;;;;;27.80;16.48;;;2.70;99.90;;;;;;5101994;28;20370;-70
2021/12/09 00:21:39;;;;;;;26.77;16.30;;;2.70;99.90;;;;;;5100605;28;20056;-69
2021/12/09 00:24:05;;;;;;;26.20;17.00;;;2.70;99.90;;;;;;5100177;28;20065;-70
2021/12/09 00:26:31;;;;;;;25.23;16.20;;;2.70;99.90;;;;;;5101656;28;20077;-70
2021/12/09 00:28:57;;;;;;;31.60;18.42;;;2.70;99.90;;;;;;5091881;28;20393;-70
2021/12/09 00:31:23;;;;;;;29.10;18.50;;;2.80;99.90;;;;;;5103419;28;20107;-70
2021/12/09 00:33:49;;;;;;;26.33;17.33;;;2.80;99.90;;;;;;5103424;28;20720;-69
2021/12/09 00:36:26;;;;;;;24.85;15.88;;;2.80;99.90;;;;;;5098507;28;20073;-70
2021/12/09 00:38:53;;;;;;;32.78;18.02;;;2.80;99.90;;;;;;5099879;28;20031;-71
2021/12/09 00:41:19;;;;;;;32.75;19.25;;;2.80;99.90;;;;;;5112208;28;20058;-70
2021/12/09 00:43:45;;;;;;;27.23;17.67;;;2.80;99.90;;;;;;5107137;28;20047;-70
2021/12/09 00:46:11;;;;;;;29.42;18.67;;;2.70;99.90;;;;;;5109473;28;20041;-70
2021/12/09 00:48:37;;;;;;;33.10;20.00;;;2.70;99.90;;;;;;5106528;28;20141;-71
2021/12/09 00:51:04;;;;;;;35.67;20.27;;;2.70;99.90;;;;;;5109446;28;20123;-70
2021/12/09 00:53:30;;;;;;;34.17;19.73;;;2.80;99.90;;;;;;5108734;28;20038;-70
2021/12/09 00:55:56;;;;;;;34.33;20.08;;;2.70;99.90;;;;;;5108193;28;20430;-70
2021/12/09 00:58:22;;;;;;;34.65;20.85;;;2.80;99.90;;;;;;5112891;28;20028;-70
2021/12/09 01:00:48;;;;;;;41.55;21.42;;;2.80;99.90;;;;;;5103847;28;20103;-69
2021/12/09 01:03:15;;;;;;;35.80;21.70;;;2.80;99.90;;;;;;5108989;28;20281;-69
2021/12/09 01:05:41;;;;;;;36.40;21.67;;;2.80;99.90;;;;;;5105885;28;20031;-70
2021/12/09 01:08:07;;;;;;;37.70;21.98;;;2.80;99.90;;;;;;5101668;28;20385;-69
2021/12/09 01:10:32;;;;;;;31.35;20.70;;;2.70;99.90;;;;;;5101914;28;20028;-69
2021/12/09 01:12:59;;;;;;;33.90;20.67;;;2.70;99.90;;;;;;5105075;28;20280;-70
2021/12/09 01:15:25;;;;;;;29.52;19.27;;;2.70;99.90;;;;;;5107218;28;20089;-69
2021/12/09 01:17:51;;;;;;;36.00;21.95;;;2.60;99.90;;;;;;5104712;28;20032;-70
2021/12/09 01:20:19;;;;;;;36.53;22.92;;;2.60;99.90;;;;;;5100419;28;20107;-70
2021/12/09 01:22:46;;;;;;;36.42;22.33;;;2.60;99.90;;;;;;5082837;28;20035;-70
2021/12/09 01:25:15;;;;;;;32.60;21.25;;;2.60;99.90;;;;;;5105639;28;20036;-69
2021/12/09 01:27:44;;;;;;;31.00;19.83;;;2.60;99.90;;;;;;5109852;28;20046;-70
2021/12/09 01:30:14;;;;;;;32.90;20.80;;;2.60;99.90;;;;;;5110628;28;20050;-70
2021/12/09 01:32:49;;;;;;;36.22;22.15;;;2.60;99.90;;;;;;5093552;28;20104;-70
2021/12/09 01:35:16;;;;;;;34.83;20.80;;;2.60;99.90;;;;;;5084697;28;20028;-70
2021/12/09 01:37:42;;;;;;;35.78;21.77;;;2.60;99.90;;;;;;5109763;28;20023;-69
2021/12/09 01:40:09;;;;;;;32.63;20.70;;;2.50;99.90;;;;;;5106483;28;20031;-70
2021/12/09 01:42:35;;;;;;;34.17;21.35;;;2.50;99.90;;;;;;5100949;28;20027;-70
2021/12/09 01:45:02;;;;;;;36.78;22.35;;;2.40;99.90;;;;;;5108131;28;20042;-70
2021/12/09 01:47:29;;;;;;;40.67;23.02;;;2.40;99.90;;;;;;5093773;28;20028;-69
2021/12/09 01:49:55;;;;;;;35.25;21.83;;;2.40;99.90;;;;;;5105309;28;20030;-69
2021/12/09 01:52:21;;;;;;;38.08;23.05;;;2.40;99.90;;;;;;5081136;28;22306;-70
2021/12/09 01:54:46;;;;;;;37.60;22.75;;;2.40;99.90;;;;;;5093383;28;20030;-70
2021/12/09 01:57:12;;;;;;;35.90;22.67;;;2.40;99.90;;;;;;5103669;28;20036;-69
2021/12/09 01:59:37;;;;;;;37.17;22.48;;;2.40;99.90;;;;;;5086388;28;20033;-70
2021/12/09 02:02:04;;;;;;;39.00;23.67;;;2.40;99.90;;;;;;5098575;28;20534;-70
2021/12/09 02:04:30;;;;;;;37.20;22.48;;;2.40;99.90;;;;;;5095544;28;20073;-70
2021/12/09 02:06:55;;;;;;;38.97;23.83;;;2.40;99.90;;;;;;5086270;28;20054;-70
2021/12/09 02:09:21;;;;;;;38.35;23.50;;;2.50;99.90;;;;;;5091177;28;20034;-71
2021/12/09 02:11:47;;;;;;;37.47;23.10;;;2.50;99.90;;;;;;5094196;28;20036;-70
2021/12/09 02:14:13;;;;;;;34.85;22.08;;;2.50;99.90;;;;;;5091836;28;20036;-69
2021/12/09 02:16:39;;;;;;;37.88;23.70;;;2.60;99.90;;;;;;5104803;28;20523;-70
2021/12/09 02:19:06;;;;;;;40.63;24.13;;;2.60;99.90;;;;;;5104733;28;20050;-70
2021/12/09 02:21:33;;;;;;;37.25;22.70;;;2.60;99.90;;;;;;5096137;28;20642;-70
2021/12/09 02:24:06;;;;;;;40.38;23.40;;;2.60;99.90;;;;;;5083139;28;20025;-70
2021/12/09 02:26:35;;;;;;;35.47;23.40;;;2.60;99.90;;;;;;5074764;28;20020;-70
2021/12/09 02:29:04;;;;;;;37.33;22.08;;;2.60;99.90;;;;;;5100996;28;20027;-70
2021/12/09 02:31:30;;;;;;;33.25;21.67;;;2.60;99.90;;;;;;5107139;28;20111;-70
2021/12/09 02:33:56;;;;;;;36.85;21.70;;;2.60;99.90;;;;;;5102824;28;20718;-69
2021/12/09 02:36:23;;;;;;;35.95;23.25;;;2.60;99.90;;;;;;5105434;28;20405;-70
2021/12/09 02:38:50;;;;;;;43.63;25.42;;;2.60;99.90;;;;;;5101918;27;20122;-69
2021/12/09 02:41:19;;;;;;;38.75;24.50;;;2.60;99.90;;;;;;5105029;27;20031;-69
2021/12/09 02:43:51;;;;;;;40.53;23.10;;;2.60;99.90;;;;;;5107781;27;20032;-70
2021/12/09 02:46:17;;;;;;;35.88;22.75;;;2.60;99.90;;;;;;5104362;27;20031;-70
2021/12/09 02:48:44;;;;;;;41.50;23.52;;;2.60;99.90;;;;;;5101042;27;20031;-69
2021/12/09 02:51:10;;;;;;;36.42;24.08;;;2.60;99.90;;;;;;5106531;27;20035;-70
2021/12/09 02:53:37;;;;;;;36.45;23.60;;;2.60;99.90;;;;;;5107214;28;20418;-70
2021/12/09 02:56:03;;;;;;;37.72;22.52;;;2.60;99.90;;;;;;5105504;28;20165;-70
2021/12/09 02:58:29;;;;;;;36.67;23.00;;;2.60;99.90;;;;;;5109139;28;20035;-70
2021/12/09 03:01:16;;;;;;;35.63;23.02;;;2.60;99.90;;;;;;5098208;28;20028;-70
2021/12/09 03:03:51;;;;;;;32.40;21.45;;;2.70;99.90;;;;;;5100008;27;20059;-70
2021/12/09 03:06:31;;;;;;;32.45;20.85;;;2.70;99.90;;;;;;5102107;27;20047;-70
2021/12/09 03:08:58;;;;;;;34.70;21.77;;;2.70;99.90;;;;;;5095732;27;20595;-70
2021/12/09 03:11:24;;;;;;;34.65;21.63;;;2.70;99.90;;;;;;5107422;28;20393;-70
2021/12/09 03:13:51;;;;;;;40.00;22.85;;;2.70;99.90;;;;;;5103482;27;20539;-70
2021/12/09 03:16:19;;;;;;;37.10;21.45;;;2.70;99.90;;;;;;5101272;28;20035;-71
2021/12/09 03:18:56;;;;;;;34.97;21.60;;;2.70;99.90;;;;;;5102673;27;20028;-70
2021/12/09 03:21:28;;;;;;;38.40;23.63;;;2.70;99.90;;;;;;5105872;27;20034;-71
2021/12/09 03:23:56;;;;;;;43.72;23.33;;;2.70;99.90;;;;;;5097790;27;20038;-70
2021/12/09 03:26:29;;;;;;;44.33;24.83;;;2.80;99.90;;;;;;5107836;27;20434;-70
2021/12/09 03:28:57;;;;;;;37.80;23.00;;;2.70;99.90;;;;;;5101149;28;20286;-69
2021/12/09 03:31:22;;;;;;;37.63;23.35;;;2.80;99.90;;;;;;5101056;28;20493;-70
2021/12/09 03:33:48;;;;;;;39.80;23.85;;;2.80;99.90;;;;;;5099819;28;20040;-69
2021/12/09 03:36:14;;;;;;;39.20;23.42;;;2.80;99.90;;;;;;5104617;27;20032;-69
2021/12/09 03:38:41;;;;;;;41.60;24.55;;;2.80;99.90;;;;;;5105264;28;20032;-69
2021/12/09 03:41:07;;;;;;;38.47;23.35;;;2.80;99.90;;;;;;5107610;28;20051;-69
2021/12/09 03:43:33;;;;;;;40.38;24.65;;;2.70;99.90;;;;;;5099295;27;20610;-70
2021/12/09 03:45:59;;;;;;;41.35;24.52;;;2.70;99.90;;;;;;5101260;27;20024;-70
2021/12/09 03:48:27;;;;;;;43.20;25.77;;;2.70;99.90;;;;;;5104433;28;20019;-70
2021/12/09 03:50:52;;;;;;;39.42;23.80;;;2.70;99.90;;;;;;5102641;27;20016;-70
2021/12/09 03:53:18;;;;;;;41.97;25.20;;;2.70;99.90;;;;;;5104236;27;20096;-70
2021/12/09 03:55:44;;;;;;;39.22;23.33;;;2.70;99.90;;;;;;5105556;27;20020;-70
2021/12/09 03:58:10;;;;;;;36.88;23.20;;;2.70;99.90;;;;;;5106946;27;20042;-69
2021/12/09 04:00:36;;;;;;;40.70;24.08;;;2.70;99.90;;;;;;5105249;28;20515;-70
2021/12/09 04:03:02;;;;;;;41.15;24.08;;;2.70;99.90;;;;;;5100173;28;20055;-70
2021/12/09 04:05:28;;;;;;;40.75;24.17;;;2.80;99.90;;;;;;5102684;28;20048;-70
2021/12/09 04:07:54;;;;;;;38.55;24.55;;;2.70;99.90;;;;;;5102788;27;20116;-70
2021/12/09 04:10:20;;;;;;;36.92;22.75;;;2.70;99.90;;;;;;5104869;27;20027;-70
2021/12/09 04:12:46;;;;;;;41.40;23.90;;;2.70;99.90;;;;;;5104986;28;20035;-70
2021/12/09 04:15:12;;;;;;;36.67;23.33;;;2.70;99.90;;;;;;5099886;28;20027;-70
2021/12/09 04:17:38;;;;;;;43.20;25.02;;;2.70;99.90;;;;;;5108162;28;20027;-70
2021/12/09 04:20:06;;;;;;;36.85;23.35;;;2.70;99.90;;;;;;5100094;28;20036;-69
2021/12/09 04:22:32;;;;;;;42.45;25.13;;;2.70;99.90;;;;;;5103633;28;20059;-70
2021/12/09 04:24:59;;;;;;;41.45;25.30;;;2.70;99.90;;;;;;5094673;28;20055;-70
2021/12/09 04:27:25;;;;;;;43.30;26.00;;;2.60;99.90;;;;;;5103512;28;20019;-70
2021/12/09 04:29:52;;;;;;;40.40;25.25;;;2.60;99.90;;;;;;5104372;28;20024;-69
2021/12/09 04:32:17;;;;;;;39.63;24.85;;;2.60;99.90;;;;;;5096689;28;20486;-70
2021/12/09 04:34:44;;;;;;;39.38;24.48;;;2.70;99.90;;;;;;5100024;28;20089;-70
2021/12/09 04:37:10;;;;;;;39.72;24.58;;;2.60;99.90;;;;;;5100427;28;20111;-70
2021/12/09 04:39:36;;;;;;;39.13;24.65;;;2.60;99.90;;;;;;5095958;28;20023;-70
2021/12/09 04:42:02;;;;;;;44.28;25.65;;;2.60;99.90;;;;;;5097027;28;20604;-70
2021/12/09 04:44:28;;;;;;;50.92;31.35;;;2.50;99.90;;;;;;5097207;28;20117;-69
2021/12/09 04:46:55;;;;;;;46.92;29.65;;;2.60;99.90;;;;;;5097522;28;20059;-69
2021/12/09 04:49:20;;;;;;;48.88;28.13;;;2.60;99.90;;;;;;5104500;28;20032;-69
2021/12/09 04:51:46;;;;;;;46.78;28.65;;;2.50;99.90;;;;;;5095389;28;20016;-70
2021/12/09 04:54:12;;;;;;;48.53;30.83;;;2.50;99.90;;;;;;5105128;28;20028;-70
2021/12/09 04:56:38;;;;;;;47.70;28.15;;;2.50;99.90;;;;;;5104806;28;20412;-70
2021/12/09 04:59:04;;;;;;;47.90;28.20;;;2.50;99.90;;;;;;5104823;28;20032;-69
2021/12/09 05:01:30;;;;;;;45.83;27.52;;;2.40;99.90;;;;;;5095720;28;20035;-70
2021/12/09 05:03:56;;;;;;;43.70;26.70;;;2.50;99.90;;;;;;5097613;28;20039;-69
2021/12/09 05:06:22;;;;;;;55.58;27.98;;;2.40;99.90;;;;;;5094538;28;20043;-70
2021/12/09 05:08:48;;;;;;;48.55;27.67;;;2.40;99.90;;;;;;5101831;28;20047;-69
2021/12/09 05:11:31;;;;;;;54.28;28.92;;;2.50;99.90;;;;;;5096411;28;20028;-70
2021/12/09 05:13:58;;;;;;;59.10;29.40;;;2.40;99.90;;;;;;5091119;28;20042;-70
2021/12/09 05:16:24;;;;;;;54.25;29.30;;;2.40;99.90;;;;;;5099689;28;20075;-70
2021/12/09 05:18:57;;;;;;;51.38;28.15;;;2.40;99.90;;;;;;5102169;28;20046;-70
2021/12/09 05:21:23;;;;;;;58.90;29.55;;;2.40;99.90;;;;;;5095651;28;20069;-69
2021/12/09 05:23:49;;;;;;;86.90;39.20;;;2.40;99.90;;;;;;5101421;28;20484;-70
2021/12/09 05:26:16;;;;;;;71.70;34.85;;;2.50;99.90;;;;;;5108624;27;20225;-70
2021/12/09 05:28:44;;;;;;;59.22;29.55;;;2.40;99.90;;;;;;5100746;28;20023;-70
2021/12/09 05:33:56;;;;;;;46.17;26.15;;;2.50;99.90;;;;;;5100012;28;20135;-70
2021/12/09 05:36:21;;;;;;;49.90;25.90;;;2.50;99.90;;;;;;5078908;28;20489;-70
2021/12/09 05:38:47;;;;;;;43.58;26.00;;;2.50;99.90;;;;;;5077319;28;20078;-70
2021/12/09 05:41:13;;;;;;;49.33;26.92;;;2.50;99.90;;;;;;5088851;28;20032;-70
2021/12/09 05:43:39;;;;;;;46.72;26.33;;;2.50;99.90;;;;;;5090094;28;20035;-70
2021/12/09 05:46:05;;;;;;;45.35;24.77;;;2.50;99.90;;;;;;5082244;28;20020;-70
2021/12/09 05:48:31;;;;;;;49.42;26.92;;;2.50;99.90;;;;;;5088494;28;20024;-70
2021/12/09 05:50:57;;;;;;;51.92;27.30;;;2.40;99.90;;;;;;5085322;28;20059;-70
2021/12/09 05:53:23;;;;;;;67.03;35.03;;;2.40;99.90;;;;;;5070967;28;20494;-70
2021/12/09 05:55:49;;;;;;;62.28;35.13;;;2.40;99.90;;;;;;4739095;28;10000020;-70
2021/12/09 05:58:18;;;;;;;53.90;29.63;;;2.30;99.90;;;;;;5088018;28;20577;-69
2021/12/09 06:00:44;;;;;;;44.65;26.35;;;2.30;99.90;;;;;;5096672;28;20500;-69
2021/12/09 06:03:10;;;;;;;48.20;26.02;;;2.30;99.90;;;;;;5083142;28;20033;-69
2021/12/09 06:05:37;;;;;;;45.13;25.38;;;2.40;99.90;;;;;;5079654;28;20445;-69
2021/12/09 06:08:04;;;;;;;43.95;24.80;;;2.40;99.90;;;;;;5081400;28;20016;-70
2021/12/09 06:10:30;;;;;;;44.88;24.10;;;2.40;99.90;;;;;;5088500;28;20027;-70
2021/12/09 06:12:56;;;;;;;47.40;24.75;;;2.40;99.90;;;;;;5079158;28;20138;-69
2021/12/09 06:15:22;;;;;;;45.60;24.75;;;2.30;99.90;;;;;;5079440;28;20039;-70
2021/12/09 06:17:48;;;;;;;45.90;24.88;;;2.30;99.90;;;;;;5075782;28;20060;-70
2021/12/09 06:20:14;;;;;;;47.22;25.27;;;2.20;99.90;;;;;;5072904;28;20025;-70
2021/12/09 06:22:40;;;;;;;47.00;25.45;;;2.20;99.90;;;;;;5088369;28;20039;-70
2021/12/09 06:25:06;;;;;;;47.50;25.20;;;2.20;99.90;;;;;;5073702;28;20025;-70
2021/12/09 06:27:32;;;;;;;46.83;25.95;;;2.20;99.90;;;;;;5083577;28;20024;-70
2021/12/09 06:29:57;;;;;;;44.47;25.05;;;2.20;99.90;;;;;;5076162;28;20031;-71
2021/12/09 06:32:26;;;;;;;45.33;24.10;;;2.10;99.90;;;;;;5090958;28;20028;-70
2021/12/09 06:34:53;;;;;;;43.78;24.65;;;2.10;99.90;;;;;;5105558;27;20096;-70
2021/12/09 06:37:19;;;;;;;49.10;25.38;;;2.10;99.90;;;;;;5101516;27;20110;-71
2021/12/09 06:39:44;;;;;;;43.60;23.88;;;2.10;99.90;;;;;;5109282;27;20111;-70
2021/12/09 06:42:10;;;;;;;46.05;23.38;;;2.10;99.90;;;;;;5100198;27;20020;-70
2021/12/09 06:44:36;;;;;;;42.80;22.90;;;2.10;99.90;;;;;;5103623;27;20106;-70
2021/12/09 06:47:02;;;;;;;44.30;24.02;;;2.10;99.90;;;;;;5108021;28;20109;-70
2021/12/09 06:49:27;;;;;;;46.80;23.73;;;2.00;99.90;;;;;;5103862;28;20023;-70
2021/12/09 06:51:53;;;;;;;40.90;22.23;;;2.00;99.90;;;;;;5108887;27;20043;-71
2021/12/09 06:54:19;;;;;;;44.80;23.52;;;2.00;99.90;;;;;;5103774;27;20123;-70
2021/12/09 06:56:45;;;;;;;46.30;23.50;;;2.00;99.90;;;;;;5099994;28;20085;-70
2021/12/09 06:59:10;;;;;;;38.88;22.35;;;2.00;99.90;;;;;;5105723;27;20039;-71
2021/12/09 07:01:37;;;;;;;38.40;21.38;;;2.00;99.90;;;;;;5104690;27;20728;-70
2021/12/09 07:04:04;;;;;;;43.90;21.85;;;2.00;99.90;;;;;;5103383;27;20396;-71
2021/12/09 07:06:29;;;;;;;40.75;22.20;;;1.90;99.90;;;;;;5099905;27;20024;-70
2021/12/09 07:08:59;;;;;;;37.45;21.25;;;2.00;99.90;;;;;;5108789;28;20495;-71
2021/12/09 07:11:25;;;;;;;36.15;20.60;;;2.00;99.90;;;;;;5105897;28;20040;-71
2021/12/09 07:13:50;;;;;;;43.45;21.08;;;1.90;99.90;;;;;;5100093;27;20028;-69
2021/12/09 07:16:16;;;;;;;35.85;20.58;;;1.90;99.90;;;;;;5092838;28;20110;-70
2021/12/09 07:18:42;;;;;;;42.92;21.55;;;1.90;99.90;;;;;;5091932;27;20729;-70
2021/12/09 07:21:08;;;;;;;38.75;20.17;;;2.00;99.90;;;;;;5103278;27;21847;-69
2021/12/09 07:23:34;;;;;;;38.28;20.42;;;2.00;99.90;;;;;;5101835;27;20457;-69
2021/12/09 07:26:00;;;;;;;45.97;22.33;;;2.00;99.90;;;;;;5099956;27;20058;-69
2021/12/09 07:28:26;;;;;;;40.33;21.60;;;2.00;99.90;;;;;;5094332;28;20747;-69
2021/12/09 07:30:51;;;;;;;40.20;21.50;;;2.00;99.90;;;;;;5099696;28;20027;-69
2021/12/09 07:33:17;;;;;;;40.75;22.20;;;2.00;99.90;;;;;;5091043;27;20494;-69
2021/12/09 07:35:43;;;;;;;47.13;25.02;;;2.00;99.90;;;;;;5089947;28;20029;-69
2021/12/09 07:38:09;;;;;;;48.33;25.70;;;2.00;99.90;;;;;;5084694;28;20550;-69
2021/12/09 07:40:36;;;;;;;47.55;25.60;;;2.00;99.90;;;;;;5095843;28;20024;-69
2021/12/09 07:43:03;;;;;;;50.75;24.20;;;2.00;99.90;;;;;;5077638;28;20520;-69
2021/12/09 07:45:29;;;;;;;44.63;22.65;;;2.00;99.90;;;;;;5077713;28;20016;-69
2021/12/09 07:47:55;;;;;;;43.28;23.65;;;2.00;99.90;;;;;;5071010;28;20035;-69
2021/12/09 07:50:23;;;;;;;44.60;23.50;;;2.00;99.90;;;;;;5093085;28;20025;-69
2021/12/09 07:52:51;;;;;;;46.90;25.15;;;2.00;99.90;;;;;;5067996;28;20033;-69
2021/12/09 07:55:19;;;;;;;47.25;24.77;;;2.00;99.90;;;;;;5072828;28;20024;-69
2021/12/09 07:57:45;;;;;;;50.90;29.17;;;2.00;99.90;;;;;;5070527;28;20082;-69
2021/12/09 08:00:15;;;;;;;55.83;30.23;;;2.00;99.90;;;;;;5083261;28;20028;-68
2021/12/09 08:02:42;;;;;;;49.80;26.85;;;2.00;99.90;;;;;;5069623;28;20036;-66
2021/12/09 08:05:09;;;;;;;48.63;23.95;;;2.00;99.90;;;;;;5069573;28;20107;-67
2021/12/09 08:07:34;;;;;;;45.90;22.73;;;2.00;99.90;;;;;;5074448;28;20066;-68
2021/12/09 08:10:00;;;;;;;41.03;22.35;;;2.00;99.90;;;;;;5076403;28;20432;-68
2021/12/09 08:12:26;;;;;;;44.97;23.02;;;2.00;99.90;;;;;;5067315;28;20025;-68
2021/12/09 08:14:52;;;;;;;39.67;21.65;;;1.90;99.90;;;;;;5085080;28;20560;-69
2021/12/09 08:17:44;;;;;;;42.38;22.60;;;2.00;99.90;;;;;;5084147;28;20035;-68
2021/12/09 08:20:11;;;;;;;39.30;21.38;;;2.00;99.90;;;;;;5082840;28;20697;-67
2021/12/09 08:22:37;;;;;;;40.83;22.67;;;2.00;99.90;;;;;;5073152;28;20658;-68
2021/12/09 08:25:06;;;;;;;40.45;22.60;;;2.00;99.90;;;;;;5074578;28;20044;-67
2021/12/09 08:27:32;;;;;;;40.72;22.85;;;2.10;99.90;;;;;;5092355;28;20031;-67
2021/12/09 08:30:04;;;;;;;42.55;23.95;;;2.10;99.90;;;;;;5075272;28;20028;-67
2021/12/09 08:32:30;;;;;;;40.40;22.58;;;2.10;99.90;;;;;;5071253;28;20037;-67
2021/12/09 08:34:56;;;;;;;39.05;21.88;;;2.20;99.90;;;;;;5097867;28;20024;-68
2021/12/09 08:37:22;;;;;;;34.58;20.45;;;2.20;99.90;;;;;;5100937;28;20516;-69
2021/12/09 08:39:48;;;;;;;33.65;19.88;;;2.20;99.90;;;;;;5090869;28;20050;-68
2021/12/09 08:42:15;;;;;;;39.95;21.35;;;2.20;99.90;;;;;;5103307;28;20023;-67
2021/12/09 08:44:41;;;;;;;37.60;20.88;;;2.30;99.90;;;;;;5104431;28;20031;-68
2021/12/09 08:47:08;;;;;;;47.15;23.73;;;2.20;99.90;;;;;;5104150;28;20076;-69
2021/12/09 08:49:34;;;;;;;43.63;22.65;;;2.30;99.90;;;;;;5106473;28;20034;-67
2021/12/09 08:52:00;;;;;;;41.65;22.73;;;2.20;99.90;;;;;;5102716;28;20331;-67
2021/12/09 08:54:26;;;;;;;43.63;22.35;;;2.30;99.90;;;;;;5107891;28;20063;-67
2021/12/09 08:56:52;;;;;;;42.60;22.50;;;2.30;99.90;;;;;;5096146;28;20066;-68
2021/12/09 08:59:20;;;;;;;40.20;22.80;;;2.30;99.90;;;;;;5096006;28;20093;-68
2021/12/09 09:01:46;;;;;;;42.60;22.58;;;2.30;99.90;;;;;;5097961;27;20381;-68
2021/12/09 09:04:12;;;;;;;45.10;23.15;;;2.30;99.90;;;;;;5097200;27;20053;-67
2021/12/09 09:06:49;;;;;;;42.13;24.67;;;2.30;99.90;;;;;;5099229;27;20020;-72
2021/12/09 09:09:15;;;;;;;40.20;22.98;;;2.30;99.90;;;;;;5101978;28;20480;-72
2021/12/09 09:11:41;;;;;;;39.20;21.90;;;2.30;99.90;;;;;;5102555;28;20069;-73
2021/12/09 09:14:06;;;;;;;41.83;22.85;;;2.30;99.90;;;;;;5103918;27;20070;-72
2021/12/09 09:16:32;;;;;;;38.83;20.80;;;2.40;99.90;;;;;;5106298;28;20119;-72
2021/12/09 09:18:57;;;;;;;38.95;21.25;;;2.50;99.90;;;;;;5104684;27;20036;-74
2021/12/09 09:21:23;;;;;;;37.58;20.13;;;2.50;99.90;;;;;;5109821;27;20024;-73
2021/12/09 09:23:49;;;;;;;32.72;19.35;;;2.60;99.90;;;;;;5106145;28;20762;-73
2021/12/09 09:26:15;;;;;;;38.03;20.23;;;2.60;99.90;;;;;;5106325;27;20023;-71
2021/12/09 09:28:40;;;;;;;35.67;19.60;;;2.70;99.90;;;;;;5108989;27;20603;-75
2021/12/09 09:31:08;;;;;;;38.50;20.27;;;2.70;99.90;;;;;;5102833;27;20030;-74
2021/12/09 09:33:33;;;;;;;36.10;19.38;;;2.80;99.90;;;;;;5101578;28;20518;-73
2021/12/09 09:36:00;;;;;;;32.10;18.13;;;2.80;99.90;;;;;;5103413;27;20110;-73
2021/12/09 09:38:26;;;;;;;36.03;18.65;;;2.90;99.90;;;;;;5098802;27;20103;-74
2021/12/09 09:41:08;;;;;;;33.38;18.15;;;2.90;99.90;;;;;;5097463;28;20032;-73
2021/12/09 09:46:10;;;;;;;34.70;18.50;;;2.90;99.90;;;;;;5104368;27;20540;-75
2021/12/09 09:48:36;;;;;;;37.60;19.08;;;2.90;99.90;;;;;;5097850;28;20107;-74
2021/12/09 09:51:03;;;;;;;37.10;19.98;;;3.00;99.90;;;;;;5111328;28;20089;-76
2021/12/09 09:53:29;;;;;;;37.15;19.88;;;3.00;99.90;;;;;;5108852;27;20053;-73
2021/12/09 09:55:55;;;;;;;37.25;19.52;;;3.10;99.90;;;;;;5110067;28;20118;-73
2021/12/09 09:58:20;;;;;;;37.53;20.38;;;3.20;99.90;;;;;;5102772;28;20087;-73
2021/12/09 10:00:46;;;;;;;38.78;21.25;;;3.20;99.90;;;;;;5099225;27;20072;-73
2021/12/09 10:03:17;;;;;;;39.15;20.95;;;3.10;99.90;;;;;;5109021;27;20024;-73
2021/12/09 10:05:48;;;;;;;40.30;20.75;;;3.20;99.90;;;;;;5101564;27;20032;-73
2021/12/09 10:08:16;;;;;;;39.92;21.25;;;3.20;99.90;;;;;;5108741;27;20388;-73
2021/12/09 10:10:45;;;;;;;40.50;21.75;;;3.20;99.90;;;;;;5108553;27;20023;-73
2021/12/09 10:13:14;;;;;;;47.75;22.92;;;3.20;99.90;;;;;;5103565;28;20058;-73
2021/12/09 10:15:42;;;;;;;45.15;23.80;;;;;;;;;;5098491;28;20031;-74
2021/12/09 10:18:09;;;;;;;45.70;24.65;;;3.50;99.90;;;;;;5099688;27;20569;-73
2021/12/09 10:20:43;;;;;;;39.13;21.92;;;3.50;99.90;;;;;;5104776;28;20107;-75
2021/12/09 10:23:38;;;;;;;44.20;24.38;;;3.50;99.90;;;;;;5101445;28;20390;-74
2021/12/09 10:26:31;;;;;;;76.80;41.13;;;3.50;99.90;;;;;;5106283;28;20046;-73
2021/12/09 10:29:37;;;;;;;45.13;24.88;;;3.60;99.90;;;;;;5108712;28;20179;-73
2021/12/09 10:32:06;;;;;;;42.53;22.85;;;3.60;99.90;;;;;;5097784;28;20035;-74
2021/12/09 10:34:37;;;;;;;42.95;22.33;;;3.70;99.90;;;;;;5087237;28;20531;-74
2021/12/09 10:37:15;;;;;;;43.08;22.55;;;3.70;99.90;;;;;;5089112;28;20030;-72
2021/12/09 10:40:10;;;;;;;41.63;22.33;;;3.70;99.90;;;;;;5077987;28;20127;-73
2021/12/09 10:42:46;;;;;;;41.92;21.55;;;3.70;99.90;;;;;;5081784;28;20035;-73
2021/12/09 10:45:35;;;;;;;38.78;21.10;;;3.80;99.90;;;;;;5075296;28;20020;-75
2021/12/09 10:51:03;;;;;;;38.83;21.02;;;3.90;99.90;;;;;;5075425;28;20274;-73
2021/12/09 10:53:46;;;;;;;39.45;20.70;;;4.00;99.90;;;;;;5086367;28;20388;-72
2021/12/09 10:56:13;;;;;;;38.05;21.88;;;4.00;99.90;;;;;;5090924;28;20027;-72
2021/12/09 10:58:46;;;;;;;40.13;20.77;;;;;;;;;;5097379;28;20032;-78
2021/12/09 11:01:18;;;;;;;40.78;22.00;;;4.10;99.90;;;;;;5091291;28;20481;-79
2021/12/09 11:03:55;;;;;;;29.15;16.17;;;4.10;99.90;;;;;;5078257;28;20400;-79
2021/12/09 11:06:30;;;;;;;35.20;19.63;;;;;;;;;;5093481;28;20055;-76
2021/12/09 11:08:59;;;;;;;37.25;20.35;;;4.20;99.90;;;;;;5088283;28;20048;-76
2021/12/09 11:11:28;;;;;;;34.17;19.77;;;4.20;99.90;;;;;;5085497;28;20068;-78
2021/12/09 11:14:08;;;;;;;34.33;19.70;;;4.10;99.90;;;;;;5091764;28;20045;-76
2021/12/09 11:16:38;;;;;;;36.83;17.90;;;4.20;99.90;;;;;;5085112;28;20084;-75
2021/12/09 11:19:08;;;;;;;28.20;15.60;;;4.30;99.90;;;;;;5104248;28;20038;-76
2021/12/09 11:21:39;;;;;;;29.00;15.50;;;4.40;99.90;;;;;;5081487;28;20657;-75
2021/12/09 11:24:12;;;;;;;24.08;14.07;;;4.50;99.90;;;;;;5078048;28;20032;-75
2021/12/09 11:29:46;;;;;;;26.60;15.65;;;4.60;99.90;;;;;;5089100;28;19916;-75
2021/12/09 11:35:10;;;;;;;25.45;15.60;;;4.80;99.90;;;;;;5069636;28;20402;-75
2021/12/09 11:37:42;;;;;;;28.15;15.32;;;4.90;99.90;;;;;;5087455;28;20016;-75
2021/12/09 11:40:45;;;;;;;24.50;13.68;;;5.10;99.90;;;;;;5080984;28;20495;-77
2021/12/09 11:43:18;;;;;;;25.27;13.27;;;5.40;99.90;;;;;;5084330;28;20412;-77
2021/12/09 11:45:46;;;;;;;22.67;13.45;;;5.60;99.90;;;;;;5084451;28;20067;-75
2021/12/09 11:48:13;;;;;;;23.42;12.95;;;5.80;99.90;;;;;;5088628;28;20501;-75
2021/12/09 11:50:45;;;;;;;20.52;12.20;;;5.80;99.90;;;;;;5099019;28;20032;-75
2021/12/09 11:53:14;;;;;;;22.50;12.88;;;5.90;99.90;;;;;;5082753;28;20031;-74
2021/12/09 11:55:45;;;;;;;19.40;11.68;;;6.00;99.90;;;;;;5090285;28;20024;-75
2021/12/09 11:58:43;;;;;;;20.85;12.25;;;6.00;99.90;;;;;;5077423;28;20050;-76
2021/12/09 12:18:52;;;;;;;18.42;11.98;;;6.10;99.90;;;;;;5091871;28;20024;-76
2021/12/09 12:24:00;;;;;;;23.15;12.70;;;6.10;99.90;;;;;;5090852;28;20457;-76
2021/12/09 12:40:33;;;;;;;14.60;7.70;;;6.20;99.90;;;;;;5095690;28;20043;-72
2021/12/09 12:43:09;;;;;;;14.77;7.45;;;6.20;99.90;;;;;;5098682;28;20031;-73
2021/12/09 12:46:35;;;;;;;17.60;8.18;;;6.20;99.90;;;;;;5105016;28;20389;-72
2021/12/09 12:51:59;;;;;;;17.08;7.47;;;6.20;99.90;;;;;;5101777;28;20015;-77
2021/12/09 12:54:45;;;;;;;15.05;8.02;;;6.10;99.90;;;;;;5090204;28;21985;-76
2021/12/09 12:57:30;;;;;;;16.52;7.53;;;6.10;99.90;;;;;;5100545;28;20032;-77
2021/12/09 13:00:00;;;;;;;19.08;9.13;;;6.00;99.90;;;;;;5102298;28;20024;-77
2021/12/09 13:05:13;;;;;;;20.80;9.45;;;5.90;99.90;;;;;;5092345;28;20046;-77
2021/12/09 13:10:51;;;;;;;19.75;11.10;;;5.70;99.90;;;;;;5103787;28;20032;-79
2021/12/09 13:13:47;;;;;;;12.90;8.02;;;5.60;99.90;;;;;;5096638;28;20043;-75
2021/12/09 13:19:16;;;;;;;22.58;11.48;;;5.60;99.90;;;;;;5091272;28;20074;-82
2021/12/09 13:21:58;;;;;;;18.88;10.73;;;5.50;99.90;;;;;;5088243;28;20030;-79
2021/12/09 13:25:02;;;;;;;21.23;11.80;;;5.40;99.90;;;;;;5100161;28;20034;-81
2021/12/09 13:33:35;;;;;;;31.38;16.75;;;5.20;99.90;;;;;;5102443;28;20542;-79
2021/12/09 13:39:10;;;;;;;24.15;12.77;;;5.00;99.90;;;;;;5084412;28;20027;-78
2021/12/09 13:50:11;;;;;;;25.23;13.10;;;4.40;99.90;;;;;;5081444;28;20035;-80
2021/12/09 13:55:17;;;;;;;20.80;12.18;;;4.20;99.90;;;;;;5080600;28;20529;-83
2021/12/09 13:57:47;;;;;;;23.25;12.27;;;4.10;99.90;;;;;;5072693;28;20028;-83
2021/12/09 14:00:24;;;;;;;22.60;13.32;;;4.10;99.90;;;;;;5084593;28;20393;-83
2021/12/09 14:03:15;;;;;;;23.08;13.57;;;3.90;99.90;;;;;;5084036;28;20031;-82
2021/12/09 14:05:44;;;;;;;27.95;14.68;;;3.90;99.90;;;;;;5086255;28;20021;-81
2021/12/09 14:08:11;;;;;;;31.35;17.77;;;3.80;99.90;;;;;;5074133;28;20028;-76